Time;durP1;ratioP1;P1;durP2;ratioP2;P2;SDS_P1;SDS_P2;PMS_P1;PMS_P2;Temp;Humidity;BMP_temperature;BMP_pressure;BME280_temperature;BME280_humidity;BME280_pressure;Samples;Min_cycle;Max_cycle;Signal;HPM_P1;HPM_P2
2022/04/14 00:00:15;;;;;;;1.33;1.23;;;11.30;90.80;;;;;;5110973;28;20569;-45
2022/04/14 00:02:42;;;;;;;1.40;1.30;;;11.30;91.40;;;;;;5110855;28;20529;-44
2022/04/14 00:05:09;;;;;;;2.63;1.80;;;11.30;91.00;;;;;;5111304;28;20481;-45
2022/04/14 00:07:39;;;;;;;2.27;1.50;;;11.40;91.30;;;;;;5112478;28;20542;-46
2022/04/14 00:10:07;;;;;;;2.50;1.40;;;11.50;91.40;;;;;;5114838;28;20435;-44
2022/04/14 00:12:34;;;;;;;1.63;1.53;;;11.60;91.40;;;;;;5114656;28;20526;-44
2022/04/14 00:15:01;;;;;;;2.17;1.70;;;11.70;91.30;;;;;;5114512;28;20525;-44
2022/04/14 00:17:29;;;;;;;1.77;1.33;;;11.70;90.90;;;;;;5114654;28;21008;-44
2022/04/14 00:19:55;;;;;;;2.07;1.67;;;11.70;91.20;;;;;;5114400;28;20979;-44
2022/04/14 00:22:22;;;;;;;2.90;1.73;;;11.60;92.00;;;;;;5114289;28;20529;-44
2022/04/14 00:24:51;;;;;;;1.30;1.10;;;11.70;91.20;;;;;;5115396;28;20760;-44
2022/04/14 00:27:19;;;;;;;1.50;1.40;;;11.40;90.60;;;;;;5114206;28;20551;-45
2022/04/14 00:29:47;;;;;;;1.33;1.10;;;11.10;91.20;;;;;;5114871;28;20443;-46
2022/04/14 00:32:14;;;;;;;2.87;1.40;;;11.20;91.50;;;;;;5113899;28;20530;-43
2022/04/14 00:34:41;;;;;;;3.00;1.67;;;11.20;91.90;;;;;;5114509;28;20474;-44
2022/04/14 00:37:09;;;;;;;2.03;1.90;;;11.20;91.30;;;;;;5114130;28;20490;-45
2022/04/14 00:39:36;;;;;;;1.67;1.57;;;11.00;91.40;;;;;;5114352;28;20474;-44
2022/04/14 00:42:10;;;;;;;1.97;1.60;;;10.80;91.40;;;;;;5114785;28;20435;-44
2022/04/14 00:44:38;;;;;;;1.33;1.10;;;10.90;91.70;;;;;;5114419;28;20466;-44
2022/04/14 00:47:06;;;;;;;4.30;1.77;;;10.90;91.50;;;;;;5113996;28;20497;-44
2022/04/14 00:49:34;;;;;;;1.37;1.27;;;11.00;92.50;;;;;;5113820;28;20546;-45
2022/04/14 00:52:01;;;;;;;2.43;1.60;;;11.00;91.90;;;;;;5113986;28;20481;-45
2022/04/14 00:54:30;;;;;;;1.60;1.50;;;11.10;92.30;;;;;;5113987;28;20478;-44
2022/04/14 00:56:57;;;;;;;1.40;1.20;;;11.10;91.50;;;;;;5114163;28;20897;-43
2022/04/14 00:59:26;;;;;;;2.13;1.40;;;10.90;91.20;;;;;;5113829;28;20525;-44
2022/04/14 01:01:53;;;;;;;1.97;1.40;;;10.70;91.60;;;;;;5113829;28;20522;-44
2022/04/14 01:04:20;;;;;;;1.40;1.30;;;10.60;91.40;;;;;;5113565;28;20967;-44
2022/04/14 01:06:48;;;;;;;1.67;1.53;;;10.50;92.00;;;;;;5114169;28;20545;-44
2022/04/14 01:09:19;;;;;;;1.63;1.47;;;10.60;92.50;;;;;;5113710;28;20521;-46
2022/04/14 01:11:47;;;;;;;1.30;1.20;;;10.50;92.30;;;;;;5114473;28;20445;-44
2022/04/14 01:14:20;;;;;;;1.47;1.37;;;10.60;92.20;;;;;;5113607;28;20544;-44
2022/04/14 01:16:48;;;;;;;1.47;1.37;;;10.60;92.10;;;;;;5113234;28;20471;-44
2022/04/14 01:19:15;;;;;;;1.23;1.13;;;10.60;92.90;;;;;;5112937;28;20967;-46
2022/04/14 01:21:46;;;;;;;1.70;1.37;;;10.80;92.10;;;;;;5113216;28;20430;-44
2022/04/14 01:24:15;;;;;;;1.67;1.57;;;11.00;92.10;;;;;;5113384;28;20447;-44
2022/04/14 01:26:42;;;;;;;2.10;1.60;;;10.80;91.80;;;;;;5112810;28;20490;-44
2022/04/14 01:29:20;;;;;;;2.47;1.53;;;10.50;91.90;;;;;;5113429;28;20479;-44
2022/04/14 01:31:47;;;;;;;4.30;1.80;;;10.50;92.00;;;;;;5112921;28;20443;-44
2022/04/14 01:34:14;;;;;;;1.97;1.40;;;10.70;93.40;;;;;;5112701;28;20496;-44
2022/04/14 01:36:41;;;;;;;2.03;1.50;;;10.60;92.10;;;;;;5113194;28;20497;-43
2022/04/14 01:39:10;;;;;;;1.53;1.27;;;10.50;92.00;;;;;;5113199;28;20478;-44
2022/04/14 01:41:38;;;;;;;2.10;1.20;;;10.60;92.30;;;;;;5112964;28;20810;-44
2022/04/14 01:44:06;;;;;;;1.70;1.37;;;10.30;91.90;;;;;;5113013;28;20447;-44
2022/04/14 01:46:33;;;;;;;2.63;1.43;;;10.40;94.00;;;;;;5113083;28;20541;-46
2022/04/14 01:49:00;;;;;;;1.53;1.23;;;10.40;93.60;;;;;;5112841;28;20481;-43
2022/04/14 01:51:28;;;;;;;1.47;1.20;;;10.50;92.60;;;;;;5112815;28;20434;-46
2022/04/14 01:53:55;;;;;;;3.00;1.30;;;10.30;92.20;;;;;;5112336;28;20521;-45
2022/04/14 01:56:22;;;;;;;1.90;1.60;;;10.10;92.20;;;;;;5112799;28;20494;-43
2022/04/14 01:58:52;;;;;;;1.73;1.40;;;10.00;93.10;;;;;;5112947;28;20467;-44
2022/04/14 02:01:19;;;;;;;1.63;1.40;;;10.00;92.90;;;;;;5112687;28;20500;-44
2022/04/14 02:03:46;;;;;;;1.70;1.37;;;10.10;92.80;;;;;;5112644;28;20471;-45
2022/04/14 02:06:13;;;;;;;1.50;1.27;;;10.20;92.80;;;;;;5112598;28;20604;-43
2022/04/14 02:08:40;;;;;;;1.40;1.30;;;10.40;93.40;;;;;;5112887;28;20526;-45
2022/04/14 02:11:07;;;;;;;1.77;1.63;;;10.50;93.30;;;;;;5112744;28;20469;-44
2022/04/14 02:13:36;;;;;;;2.33;1.60;;;10.60;92.80;;;;;;5112319;28;20447;-45
2022/04/14 02:16:05;;;;;;;2.10;1.60;;;10.40;92.00;;;;;;5112057;28;21008;-46
2022/04/14 02:18:32;;;;;;;2.80;1.50;;;10.40;92.70;;;;;;5112221;28;20932;-44
2022/04/14 02:20:59;;;;;;;2.53;1.80;;;10.40;93.40;;;;;;5112010;28;20497;-48
2022/04/14 02:23:27;;;;;;;2.40;1.10;;;10.50;92.90;;;;;;5112006;28;20439;-44
2022/04/14 02:25:53;;;;;;;1.30;1.20;;;10.50;92.00;;;;;;5112347;28;20490;-44
2022/04/14 02:28:20;;;;;;;1.40;1.30;;;10.30;91.80;;;;;;5112462;28;20434;-43
2022/04/14 02:30:48;;;;;;;1.63;1.33;;;10.00;92.20;;;;;;5111072;28;20806;-44
2022/04/14 02:33:16;;;;;;;2.50;1.30;;;10.00;92.40;;;;;;5112079;28;20449;-43
2022/04/14 02:35:43;;;;;;;1.73;1.47;;;9.80;92.80;;;;;;5111969;28;20475;-44
2022/04/14 02:38:10;;;;;;;1.33;1.23;;;9.60;93.10;;;;;;5112648;28;20795;-44
2022/04/14 02:40:38;;;;;;;1.70;1.33;;;9.80;94.00;;;;;;5112025;28;20478;-43
2022/04/14 02:43:05;;;;;;;4.90;2.33;;;10.00;93.50;;;;;;5111857;28;20905;-44
2022/04/14 02:45:32;;;;;;;1.73;1.50;;;10.10;92.70;;;;;;5111603;28;20446;-44
2022/04/14 02:47:59;;;;;;;3.40;1.33;;;10.10;92.50;;;;;;5112194;28;20470;-45
2022/04/14 02:50:27;;;;;;;1.60;1.50;;;10.00;92.10;;;;;;5112087;28;20491;-44
2022/04/14 02:52:54;;;;;;;2.33;1.30;;;9.80;92.90;;;;;;5111816;28;20779;-44
2022/04/14 02:55:22;;;;;;;4.10;1.50;;;9.70;93.20;;;;;;5111917;28;20443;-44
2022/04/14 02:57:49;;;;;;;1.47;1.33;;;9.80;93.60;;;;;;5111632;28;20537;-44
2022/04/14 03:00:17;;;;;;;2.10;1.80;;;9.60;93.40;;;;;;5111496;28;20569;-44
2022/04/14 03:02:44;;;;;;;1.57;1.30;;;9.60;93.30;;;;;;5111489;28;20944;-44
2022/04/14 03:05:11;;;;;;;2.40;1.60;;;9.50;93.70;;;;;;5111602;28;20953;-44
2022/04/14 03:07:40;;;;;;;1.43;1.33;;;9.30;93.60;;;;;;5112002;28;20508;-44
2022/04/14 03:10:08;;;;;;;1.67;1.40;;;9.10;94.10;;;;;;5111727;28;20453;-44
2022/04/14 03:12:42;;;;;;;1.47;1.37;;;9.00;94.60;;;;;;5111113;28;20534;-43
2022/04/14 03:15:10;;;;;;;1.50;1.40;;;9.00;94.80;;;;;;5111842;28;20530;-44
2022/04/14 03:17:36;;;;;;;2.17;1.97;;;8.90;95.20;;;;;;5134346;22;20913;-48
2022/04/14 03:20:04;;;;;;;2.33;2.13;;;9.10;95.60;;;;;;5111532;28;20474;-45
2022/04/14 03:22:34;;;;;;;2.80;1.90;;;9.10;96.20;;;;;;5111293;28;20491;-46
2022/04/14 03:25:03;;;;;;;2.10;1.37;;;8.90;95.70;;;;;;5111525;28;20439;-45
2022/04/14 03:27:30;;;;;;;1.60;1.50;;;9.10;95.90;;;;;;5110754;28;20893;-45
2022/04/14 03:29:57;;;;;;;1.93;1.50;;;9.20;95.40;;;;;;5111365;28;20499;-47
2022/04/14 03:32:25;;;;;;;1.87;1.40;;;9.30;95.30;;;;;;5111255;28;20438;-46
2022/04/14 03:34:52;;;;;;;3.10;1.77;;;9.50;95.20;;;;;;5110986;28;20796;-47
2022/04/14 03:37:19;;;;;;;1.70;1.40;;;9.30;94.40;;;;;;5111310;28;20489;-45
2022/04/14 03:39:46;;;;;;;1.60;1.40;;;9.20;94.50;;;;;;5111137;28;20517;-50
2022/04/14 03:42:14;;;;;;;1.50;1.40;;;9.20;94.50;;;;;;5112168;28;20510;-45
2022/04/14 03:44:41;;;;;;;1.70;1.37;;;9.40;94.80;;;;;;5115404;28;20496;-46
2022/04/14 03:47:09;;;;;;;1.90;1.60;;;9.60;95.30;;;;;;5115124;28;20484;-50
2022/04/14 03:49:36;;;;;;;2.80;1.37;;;9.70;94.80;;;;;;5115192;28;20940;-45
2022/04/14 03:52:04;;;;;;;2.40;1.30;;;9.40;94.00;;;;;;5115348;28;20492;-45
2022/04/14 03:54:31;;;;;;;2.40;1.80;;;9.10;94.30;;;;;;5115037;28;20434;-46
2022/04/14 03:56:58;;;;;;;5.47;1.90;;;9.00;94.70;;;;;;5115008;28;20493;-45
2022/04/14 03:59:26;;;;;;;4.20;1.70;;;9.10;95.00;;;;;;5115527;28;20851;-45
2022/04/14 04:01:53;;;;;;;1.50;1.40;;;9.30;95.70;;;;;;5115060;28;21007;-45
2022/04/14 04:04:20;;;;;;;2.87;1.63;;;9.50;95.20;;;;;;5114458;28;20502;-46
2022/04/14 04:06:47;;;;;;;2.50;1.17;;;9.60;94.90;;;;;;5114772;28;20480;-48
2022/04/14 04:09:14;;;;;;;1.33;1.20;;;9.70;94.20;;;;;;5115163;28;20477;-49
2022/04/14 04:11:41;;;;;;;2.97;1.70;;;9.50;94.00;;;;;;5114882;28;20466;-47
2022/04/14 04:14:08;;;;;;;1.70;1.60;;;9.40;94.00;;;;;;5114546;28;20453;-50
2022/04/14 04:16:36;;;;;;;2.50;1.70;;;9.20;94.00;;;;;;5114449;28;20531;-46
2022/04/14 04:19:03;;;;;;;2.70;2.00;;;9.20;93.90;;;;;;5114850;28;20521;-45
2022/04/14 04:21:31;;;;;;;2.40;1.93;;;9.20;94.00;;;;;;5114905;28;20478;-45
2022/04/14 04:23:58;;;;;;;2.30;1.80;;;9.10;94.40;;;;;;5114635;28;20814;-45
2022/04/14 04:26:25;;;;;;;1.47;1.13;;;8.90;94.60;;;;;;5114326;28;20496;-47
2022/04/14 04:28:52;;;;;;;2.57;1.70;;;8.80;95.00;;;;;;5114390;28;20963;-45
2022/04/14 04:31:19;;;;;;;2.40;1.90;;;8.80;95.60;;;;;;5114502;28;20481;-45
2022/04/14 04:33:51;;;;;;;1.83;1.50;;;8.90;96.10;;;;;;5113923;28;21001;-45
2022/04/14 04:36:18;;;;;;;2.47;1.53;;;9.00;95.40;;;;;;5114196;28;20500;-46
2022/04/14 04:38:45;;;;;;;3.33;2.23;;;9.00;94.70;;;;;;5114309;28;20978;-45
2022/04/14 04:41:12;;;;;;;2.73;1.70;;;8.90;94.70;;;;;;5114446;28;20502;-49
2022/04/14 04:43:39;;;;;;;1.40;1.30;;;9.10;94.50;;;;;;5114347;28;20485;-45
2022/04/14 04:46:08;;;;;;;2.43;1.20;;;9.00;94.80;;;;;;5114313;28;20785;-45
2022/04/14 04:48:35;;;;;;;1.63;1.50;;;9.30;95.80;;;;;;5113912;28;21013;-45
2022/04/14 04:51:04;;;;;;;1.97;1.30;;;9.60;96.80;;;;;;5114005;28;20435;-44
2022/04/14 04:53:31;;;;;;;1.43;1.33;;;9.70;95.40;;;;;;5113085;28;20438;-47
2022/04/14 04:56:01;;;;;;;1.90;1.70;;;9.80;95.10;;;;;;5113480;28;20477;-45
2022/04/14 04:58:27;;;;;;;6.13;2.37;;;10.00;94.40;;;;;;5113878;28;20526;-46
2022/04/14 05:00:55;;;;;;;1.83;1.10;;;10.00;93.90;;;;;;5113898;28;21052;-45
2022/04/14 05:03:22;;;;;;;2.10;1.40;;;10.00;93.50;;;;;;5113897;28;20486;-46
2022/04/14 05:05:49;;;;;;;8.17;1.53;;;9.80;94.30;;;;;;5113758;28;20521;-44
2022/04/14 05:08:18;;;;;;;11.80;3.70;;;9.70;94.80;;;;;;5113651;28;20458;-46
2022/04/14 05:10:44;;;;;;;8.27;2.43;;;9.70;94.80;;;;;;5113170;28;20518;-43
2022/04/14 05:13:11;;;;;;;7.30;2.50;;;9.70;94.90;;;;;;5113331;28;20446;-47
2022/04/14 05:15:38;;;;;;;4.10;2.03;;;9.60;95.00;;;;;;5113934;28;20533;-44
2022/04/14 05:18:06;;;;;;;32.97;6.70;;;9.50;94.50;;;;;;5113166;28;20470;-45
2022/04/14 05:20:34;;;;;;;16.50;8.27;;;9.60;94.90;;;;;;5113429;28;20946;-44
2022/04/14 05:23:01;;;;;;;23.03;5.90;;;9.60;94.90;;;;;;5113414;28;20453;-45
2022/04/14 05:25:30;;;;;;;13.30;10.83;;;9.60;94.90;;;;;;5113241;28;20431;-48
2022/04/14 05:27:57;;;;;;;13.33;11.97;;;9.80;95.20;;;;;;5113473;28;20490;-46
2022/04/14 05:30:24;;;;;;;9.70;2.93;;;9.90;95.40;;;;;;5113101;28;20473;-42
2022/04/14 05:32:51;;;;;;;8.33;2.83;;;10.00;94.90;;;;;;5113054;28;20484;-46
2022/04/14 05:35:18;;;;;;;2.97;2.17;;;9.90;95.40;;;;;;5113614;28;20462;-45
2022/04/14 05:37:45;;;;;;;3.30;2.30;;;10.20;94.20;;;;;;5112917;28;20454;-50
2022/04/14 05:40:12;;;;;;;3.23;2.13;;;10.20;94.30;;;;;;5113189;28;20431;-45
2022/04/14 05:42:45;;;;;;;3.30;1.80;;;10.20;94.10;;;;;;5112539;28;20478;-45
2022/04/14 05:45:13;;;;;;;1.93;1.83;;;10.20;94.50;;;;;;5112998;28;20454;-45
2022/04/14 05:47:40;;;;;;;6.53;2.07;;;10.10;93.80;;;;;;5111534;28;20459;-49
2022/04/14 05:50:07;;;;;;;29.30;6.13;;;10.10;94.00;;;;;;5112122;28;20982;-45
2022/04/14 05:52:34;;;;;;;24.03;6.50;;;10.30;94.40;;;;;;5112204;28;20534;-46
2022/04/14 05:55:02;;;;;;;12.03;8.40;;;10.40;94.60;;;;;;5112834;28;20439;-48
2022/04/14 05:57:29;;;;;;;12.80;3.20;;;10.50;94.60;;;;;;5113138;28;20458;-45
2022/04/14 05:59:58;;;;;;;2.70;1.90;;;10.60;94.40;;;;;;5112577;28;20538;-45
2022/04/14 06:02:25;;;;;;;13.20;10.77;;;10.50;94.40;;;;;;5108171;28;20511;-50
2022/04/14 06:04:53;;;;;;;9.20;5.37;;;10.60;94.90;;;;;;5091460;28;20877;-45
2022/04/14 06:07:20;;;;;;;3.30;2.47;;;10.60;94.40;;;;;;5091984;28;20542;-46
2022/04/14 06:09:46;;;;;;;6.10;2.80;;;10.80;94.20;;;;;;5091838;28;20514;-45
2022/04/14 06:12:13;;;;;;;2.00;1.80;;;10.90;94.80;;;;;;5091348;28;20471;-50
2022/04/14 06:14:40;;;;;;;2.60;1.87;;;10.80;94.20;;;;;;5090287;28;20439;-47
2022/04/14 06:17:09;;;;;;;3.20;2.90;;;10.70;95.40;;;;;;5090486;28;20467;-47
2022/04/14 06:19:35;;;;;;;2.60;2.27;;;10.80;95.60;;;;;;5090700;28;20471;-46
2022/04/14 06:22:02;;;;;;;2.30;2.10;;;10.90;95.20;;;;;;5092309;28;20513;-45
2022/04/14 06:24:29;;;;;;;2.50;1.80;;;10.90;95.10;;;;;;5090724;28;20518;-45
2022/04/14 06:26:56;;;;;;;3.97;3.60;;;10.90;95.20;;;;;;5089701;28;20859;-47
2022/04/14 06:29:23;;;;;;;5.20;4.53;;;10.90;95.50;;;;;;5091548;28;20447;-47
2022/04/14 06:31:50;;;;;;;5.60;5.00;;;11.00;95.20;;;;;;5091163;28;20534;-45
2022/04/14 06:34:18;;;;;;;7.50;6.80;;;11.10;95.40;;;;;;5091333;28;20436;-46
2022/04/14 06:36:45;;;;;;;6.17;5.57;;;11.10;96.20;;;;;;5091338;28;20459;-45
2022/04/14 06:39:13;;;;;;;7.10;6.40;;;11.20;95.90;;;;;;5091561;28;20527;-46
2022/04/14 06:41:40;;;;;;;10.80;9.90;;;11.10;95.20;;;;;;5089973;28;20478;-45
2022/04/14 06:44:07;;;;;;;11.13;10.10;;;11.10;95.00;;;;;;5089757;28;20435;-45
2022/04/14 06:46:34;;;;;;;9.40;8.50;;;11.20;95.70;;;;;;5089916;28;20455;-46
2022/04/14 06:49:03;;;;;;;6.43;4.50;;;11.30;95.20;;;;;;5089905;28;20516;-48
2022/04/14 06:51:31;;;;;;;5.77;4.67;;;11.40;94.40;;;;;;5091371;28;20527;-46
2022/04/14 06:53:59;;;;;;;3.90;3.50;;;11.40;95.10;;;;;;5104281;28;20481;-47
2022/04/14 06:56:26;;;;;;;6.33;4.20;;;11.50;95.00;;;;;;5111311;28;20467;-45
2022/04/14 06:58:53;;;;;;;2.23;2.03;;;11.70;95.20;;;;;;5111371;28;20470;-46
2022/04/14 07:01:19;;;;;;;2.00;1.87;;;11.60;94.70;;;;;;5111373;28;20483;-44
2022/04/14 07:03:46;;;;;;;4.47;1.90;;;11.80;95.20;;;;;;5111135;28;20777;-45
2022/04/14 07:06:13;;;;;;;21.83;2.70;;;11.80;95.30;;;;;;5111747;28;20435;-45
2022/04/14 07:08:42;;;;;;;1.93;1.70;;;11.60;95.00;;;;;;5111618;28;20462;-45
2022/04/14 07:11:08;;;;;;;3.10;1.60;;;11.40;95.10;;;;;;5111427;28;20455;-45
2022/04/14 07:13:35;;;;;;;2.43;2.17;;;11.40;96.00;;;;;;5110938;28;20989;-46
2022/04/14 07:16:03;;;;;;;6.10;2.40;;;11.60;96.30;;;;;;5111266;28;20473;-46
2022/04/14 07:18:29;;;;;;;4.73;2.60;;;11.80;96.70;;;;;;5110465;28;20446;-47
2022/04/14 07:20:56;;;;;;;3.20;2.50;;;12.00;96.90;;;;;;5110947;28;20526;-46
2022/04/14 07:23:23;;;;;;;5.93;4.97;;;12.20;96.20;;;;;;5110927;28;20645;-45
2022/04/14 07:25:51;;;;;;;10.70;7.70;;;12.40;96.70;;;;;;5107527;28;20439;-48
2022/04/14 07:28:18;;;;;;;52.67;17.87;;;12.50;96.20;;;;;;5111363;28;20490;-47
2022/04/14 07:30:45;;;;;;;7.83;3.77;;;12.70;96.20;;;;;;5110941;28;20438;-46
2022/04/14 07:33:12;;;;;;;6.03;3.63;;;12.90;95.90;;;;;;5111204;28;20879;-45
2022/04/14 07:35:39;;;;;;;5.63;4.20;;;13.00;95.80;;;;;;5111061;28;20517;-45
2022/04/14 07:38:06;;;;;;;3.57;3.07;;;13.00;95.40;;;;;;5111098;28;20498;-45
2022/04/14 07:40:33;;;;;;;4.73;3.63;;;13.00;95.80;;;;;;5111082;28;20496;-48
2022/04/14 07:43:02;;;;;;;5.00;3.90;;;13.00;96.40;;;;;;5107427;28;20502;-45
2022/04/14 07:45:29;;;;;;;3.87;1.60;;;13.00;95.30;;;;;;5110874;28;20875;-45
2022/04/14 07:47:56;;;;;;;1.70;1.47;;;13.10;94.60;;;;;;5110247;28;20462;-48
2022/04/14 07:50:24;;;;;;;2.53;1.77;;;13.20;94.10;;;;;;5109739;28;20439;-46
2022/04/14 07:52:53;;;;;;;9.37;8.40;;;13.30;92.80;;;;;;5109291;28;20496;-47
2022/04/14 07:55:21;;;;;;;2.47;2.20;;;13.30;91.40;;;;;;5109966;28;20813;-45
2022/04/14 07:57:49;;;;;;;2.70;2.07;;;13.30;91.40;;;;;;5103015;28;21028;-46
2022/04/14 08:00:18;;;;;;;3.87;2.20;;;13.40;89.50;;;;;;5109681;28;20438;-45
2022/04/14 08:02:49;;;;;;;3.80;2.90;;;13.40;88.60;;;;;;5109444;28;20562;-46
2022/04/14 08:05:16;;;;;;;2.27;1.60;;;13.50;87.90;;;;;;5097800;28;20443;-42
2022/04/14 08:07:43;;;;;;;2.20;2.00;;;13.60;87.60;;;;;;5092862;28;20460;-46
2022/04/14 08:10:10;;;;;;;1.90;1.30;;;13.70;88.10;;;;;;5091281;28;20531;-45
2022/04/14 08:12:37;;;;;;;2.07;1.57;;;13.80;85.10;;;;;;5095447;28;20874;-46
2022/04/14 08:15:05;;;;;;;4.33;1.87;;;14.00;83.30;;;;;;5110942;28;20484;-45
2022/04/14 08:17:34;;;;;;;3.00;2.00;;;14.10;84.60;;;;;;5110142;28;20498;-45
2022/04/14 08:20:01;;;;;;;2.60;1.40;;;14.20;82.50;;;;;;5110378;28;20529;-43
2022/04/14 08:22:28;;;;;;;17.97;2.93;;;14.30;83.50;;;;;;5110356;28;20557;-46
2022/04/14 08:24:55;;;;;;;12.43;2.80;;;14.60;87.30;;;;;;5110617;28;20477;-45
2022/04/14 08:27:22;;;;;;;5.53;2.10;;;14.70;86.70;;;;;;5109857;28;20545;-44
2022/04/14 08:29:49;;;;;;;2.53;1.43;;;14.90;84.00;;;;;;5111750;28;20470;-45
2022/04/14 08:32:16;;;;;;;4.00;3.60;;;15.00;85.00;;;;;;5103790;28;20470;-50
2022/04/14 08:34:45;;;;;;;9.57;2.73;;;15.00;82.40;;;;;;5092467;28;20965;-46
2022/04/14 08:37:12;;;;;;;6.97;1.97;;;15.00;83.80;;;;;;5110270;28;20972;-45
2022/04/14 08:39:40;;;;;;;4.93;1.80;;;15.20;82.90;;;;;;5112092;28;20920;-46
2022/04/14 08:42:16;;;;;;;4.60;3.97;;;15.40;83.10;;;;;;5091761;28;20474;-44
2022/04/14 08:44:48;;;;;;;2.10;1.37;;;15.70;83.10;;;;;;5092312;28;20937;-47
2022/04/14 08:47:16;;;;;;;1999.90;499.13;;;16.00;77.60;;;;;;5092447;28;20459;-45
2022/04/14 08:49:46;;;;;;;28.63;9.20;;;16.10;96.30;;;;;;5092967;28;20838;-51
2022/04/14 08:52:15;;;;;;;1575.30;394.77;;;16.10;88.90;;;;;;5107938;28;20456;-46
2022/04/14 08:54:44;;;;;;;102.57;13.30;;;16.00;99.90;;;;;;5109460;28;20534;-44
2022/04/14 08:57:13;;;;;;;9.90;2.43;;;15.80;90.20;;;;;;5098749;28;20478;-47
2022/04/14 08:59:43;;;;;;;1.37;1.27;;;15.80;80.30;;;;;;5092053;28;20440;-48
2022/04/14 09:02:16;;;;;;;1586.87;417.30;;;16.20;84.60;;;;;;5091956;28;20546;-46
2022/04/14 09:04:45;;;;;;;4.80;4.37;;;16.40;98.50;;;;;;5100695;28;20439;-46
2022/04/14 09:07:13;;;;;;;5.40;2.40;;;16.40;84.10;;;;;;5102542;28;20541;-47
2022/04/14 09:09:40;;;;;;;8.93;5.07;;;16.50;88.60;;;;;;5095891;28;20464;-45
2022/04/14 09:12:08;;;;;;;21.13;6.37;;;16.60;83.10;;;;;;5092794;28;20439;-45
2022/04/14 09:14:35;;;;;;;8.23;2.10;;;16.70;93.30;;;;;;5093015;28;20443;-43
2022/04/14 09:17:02;;;;;;;2.20;1.70;;;16.90;83.90;;;;;;5138157;22;20478;-46
2022/04/14 09:19:30;;;;;;;5.60;3.10;;;17.00;87.00;;;;;;5112446;28;20435;-50
2022/04/14 09:21:59;;;;;;;388.17;51.20;;;17.10;89.60;;;;;;5112554;28;20530;-46
2022/04/14 09:24:40;;;;;;;1144.83;283.23;;;17.10;89.50;;;;;;5113296;28;20788;-51
2022/04/14 09:27:07;;;;;;;366.73;60.20;;;16.30;99.90;;;;;;5113033;28;20562;-50
2022/04/14 09:29:35;;;;;;;1999.90;823.67;;;15.90;99.90;;;;;;5113055;28;20529;-49
2022/04/14 09:32:03;;;;;;;657.60;147.57;;;15.80;99.90;;;;;;5112842;28;20488;-51
2022/04/14 09:34:48;;;;;;;20.87;7.00;;;15.70;99.90;;;;;;5112915;28;20950;-51
2022/04/14 09:37:17;;;;;;;30.00;7.17;;;15.80;99.90;;;;;;5112355;28;20506;-51
2022/04/14 09:39:51;;;;;;;1999.90;872.53;;;15.90;96.20;;;;;;5112520;28;20430;-49
2022/04/14 09:42:20;;;;;;;285.90;64.07;;;15.90;99.90;;;;;;5111631;28;20827;-49
2022/04/14 09:44:47;;;;;;;22.20;5.63;;;15.30;99.90;;;;;;5110365;28;20969;-52
2022/04/14 09:47:26;;;;;;;2.60;2.30;;;14.80;99.90;;;;;;5111508;28;20518;-52
2022/04/14 09:49:53;;;;;;;5.33;2.23;;;14.30;99.90;;;;;;5112182;28;20491;-53
2022/04/14 09:52:21;;;;;;;53.27;14.93;;;14.20;99.90;;;;;;5111166;28;20526;-48
2022/04/14 09:54:49;;;;;;;14.80;3.70;;;14.60;99.90;;;;;;5112049;28;20442;-52
2022/04/14 09:57:18;;;;;;;33.60;10.13;;;15.00;99.90;;;;;;5112480;28;20477;-51
2022/04/14 09:59:44;;;;;;;285.00;53.53;;;15.00;99.90;;;;;;5110512;28;20446;-49
2022/04/14 10:02:13;;;;;;;83.30;16.03;;;14.60;99.90;;;;;;5102706;28;20952;-51
2022/04/14 10:04:41;;;;;;;71.77;18.80;;;15.00;99.90;;;;;;5091575;28;20489;-53
2022/04/14 10:07:11;;;;;;;42.07;10.70;;;15.30;99.90;;;;;;5090666;28;20486;-54
2022/04/14 10:09:41;;;;;;;31.77;10.37;;;15.40;99.90;;;;;;5090613;28;20435;-52
2022/04/14 10:12:30;;;;;;;182.70;42.50;;;15.50;99.90;;;;;;5091008;28;20447;-52
2022/04/14 10:15:07;;;;;;;40.43;12.70;;;15.60;99.90;;;;;;5090856;28;20436;-52
2022/04/14 10:17:37;;;;;;;4.00;2.40;;;15.50;99.90;;;;;;5090381;28;20999;-52
2022/04/14 10:20:06;;;;;;;4.10;1.80;;;15.80;99.90;;;;;;5090873;28;20977;-51
2022/04/14 10:22:35;;;;;;;3.40;2.17;;;16.10;99.90;;;;;;5091614;28;20562;-51
2022/04/14 10:25:05;;;;;;;2.67;2.43;;;16.10;99.90;;;;;;5092194;28;20443;-53
2022/04/14 10:27:33;;;;;;;2.70;2.27;;;16.50;99.90;;;;;;5091912;28;20641;-53
2022/04/14 10:30:00;;;;;;;3.43;2.10;;;16.90;99.90;;;;;;5091931;28;20444;-54
2022/04/14 10:32:27;;;;;;;3.93;2.10;;;17.40;99.90;;;;;;5092962;28;20471;-52
2022/04/14 10:34:56;;;;;;;9.43;3.10;;;17.80;99.90;;;;;;5111812;28;20465;-52
2022/04/14 10:37:28;;;;;;;4.97;1.77;;;18.00;97.30;;;;;;5111541;28;20451;-51
2022/04/14 10:39:56;;;;;;;5.83;1.80;;;18.30;99.90;;;;;;5112106;28;20439;-54
2022/04/14 10:42:27;;;;;;;28.60;10.77;;;18.60;97.00;;;;;;5111608;28;20446;-51
2022/04/14 10:44:55;;;;;;;8.40;3.17;;;18.50;93.40;;;;;;5111761;28;20474;-52
2022/04/14 10:47:54;;;;;;;70.83;12.93;;;18.40;93.30;;;;;;5111711;28;20482;-51
2022/04/14 10:50:22;;;;;;;19.10;8.43;;;18.20;95.50;;;;;;5111941;28;20435;-51
2022/04/14 10:53:08;;;;;;;1069.27;169.33;;;18.20;96.30;;;;;;5110561;28;20427;-51
2022/04/14 10:55:39;;;;;;;330.97;52.83;;;18.10;98.60;;;;;;5111882;28;20474;-51
2022/04/14 10:58:28;;;;;;;78.80;14.37;;;18.10;98.70;;;;;;5111320;28;20486;-51
2022/04/14 11:00:56;;;;;;;177.00;33.57;;;18.20;99.50;;;;;;5111357;28;20482;-51
2022/04/14 11:03:45;;;;;;;127.63;25.73;;;18.20;99.10;;;;;;5110072;28;20557;-53
2022/04/14 11:06:48;;;;;;;2.70;2.47;;;18.30;99.10;;;;;;5111219;28;20438;-54
2022/04/14 11:09:49;;;;;;;4.30;2.57;;;18.40;92.20;;;;;;5111258;28;20499;-52
2022/04/14 11:12:20;;;;;;;692.10;120.90;;;18.60;89.10;;;;;;5111070;28;20435;-51
2022/04/14 11:14:57;;;;;;;16.40;4.10;;;19.00;95.50;;;;;;5111273;28;20450;-51
2022/04/14 11:17:52;;;;;;;15.33;4.50;;;19.40;95.90;;;;;;5111180;28;20484;-52
2022/04/14 11:20:22;;;;;;;68.30;19.23;;;19.60;91.30;;;;;;5111418;28;20438;-53
2022/04/14 11:23:08;;;;;;;3.23;2.50;;;19.50;93.50;;;;;;5111191;28;20847;-54
2022/04/14 11:25:48;;;;;;;10.37;2.93;;;19.70;90.90;;;;;;5111659;28;20434;-53
2022/04/14 11:28:21;;;;;;;151.70;16.17;;;20.20;86.80;;;;;;5111140;28;20546;-55
2022/04/14 11:30:51;;;;;;;73.10;12.10;;;20.40;86.00;;;;;;5111138;28;20940;-51
2022/04/14 11:33:25;;;;;;;5.03;2.67;;;20.30;91.80;;;;;;5111134;28;20467;-51
2022/04/14 11:35:52;;;;;;;15.97;3.37;;;20.50;90.60;;;;;;5111253;28;20964;-52
2022/04/14 11:38:51;;;;;;;37.23;8.30;;;20.90;86.00;;;;;;5111144;28;20533;-51
2022/04/14 11:41:38;;;;;;;18.17;4.73;;;20.80;91.40;;;;;;5111341;28;20948;-50
2022/04/14 11:44:08;;;;;;;83.77;23.03;;;20.90;81.20;;;;;;5111286;28;20475;-51
2022/04/14 11:46:38;;;;;;;14.47;4.03;;;21.10;87.20;;;;;;5111400;28;20475;-52
2022/04/14 11:49:06;;;;;;;8.60;4.00;;;21.10;80.00;;;;;;5111097;28;20811;-51
2022/04/14 11:51:33;;;;;;;36.93;15.90;;;21.10;78.50;;;;;;5111089;28;20960;-53
2022/04/14 11:54:00;;;;;;;13.70;3.30;;;21.20;86.00;;;;;;5111070;28;20434;-51
2022/04/14 11:56:27;;;;;;;979.50;269.00;;;21.20;82.00;;;;;;5111549;28;20446;-53
2022/04/14 11:58:55;;;;;;;46.17;6.13;;;21.10;79.50;;;;;;5111196;28;20443;-53
2022/04/14 12:01:22;;;;;;;15.47;3.00;;;21.30;77.20;;;;;;5110818;28;20446;-53
2022/04/14 12:03:50;;;;;;;14.10;4.77;;;21.30;65.60;;;;;;5112737;28;20477;-52
2022/04/14 12:06:18;;;;;;;22.23;10.57;;;21.60;74.40;;;;;;5115023;28;20470;-52
2022/04/14 12:08:55;;;;;;;9.70;7.57;;;21.60;76.80;;;;;;5114762;28;20923;-52
2022/04/14 12:11:24;;;;;;;11.77;2.10;;;21.80;64.80;;;;;;5114949;28;20529;-52
2022/04/14 12:13:52;;;;;;;1.60;1.23;;;21.70;68.30;;;;;;5114584;28;20448;-51
2022/04/14 12:16:18;;;;;;;1.63;1.53;;;21.80;68.20;;;;;;5114895;28;20481;-54
2022/04/14 12:18:56;;;;;;;1.60;1.20;;;21.80;66.20;;;;;;5114759;28;20502;-52
2022/04/14 12:21:24;;;;;;;7.20;1.73;;;21.80;63.80;;;;;;5114443;28;20438;-54
2022/04/14 12:23:52;;;;;;;2.57;1.50;;;22.00;66.40;;;;;;5114226;28;20519;-55
2022/04/14 12:26:21;;;;;;;5.27;1.70;;;22.00;63.50;;;;;;5114507;28;20477;-52
2022/04/14 12:28:48;;;;;;;6.07;5.43;;;21.80;64.50;;;;;;5113472;28;20458;-52
2022/04/14 12:31:17;;;;;;;10.10;9.10;;;22.00;60.30;;;;;;5103091;28;20482;-54
2022/04/14 12:33:58;;;;;;;2.30;1.57;;;22.00;55.50;;;;;;5093949;28;20442;-52
2022/04/14 12:36:34;;;;;;;3.17;1.30;;;22.00;59.50;;;;;;5094010;28;20469;-52
2022/04/14 12:39:04;;;;;;;2.00;1.07;;;22.10;59.70;;;;;;5094457;28;20449;-51
2022/04/14 12:41:35;;;;;;;2.93;1.63;;;22.00;59.10;;;;;;5094055;28;20447;-53
2022/04/14 12:44:02;;;;;;;1.70;1.20;;;21.90;66.20;;;;;;5093558;28;20471;-54
2022/04/14 12:46:35;;;;;;;1.80;1.60;;;21.80;55.80;;;;;;5093633;28;20847;-52
2022/04/14 12:49:06;;;;;;;6.07;1.93;;;21.60;63.30;;;;;;5098348;28;20439;-53
2022/04/14 12:51:35;;;;;;;2.30;1.43;;;21.70;65.80;;;;;;5114315;28;20533;-54